sensor_id;sensor_type;location;lat;lon;timestamp;P1;durP1;ratioP1;P2;durP2;ratioP2
72109;SDS011;59983;52.010;5.420;2023-04-29T00:02:21;35.67;;;19.77;;
72109;SDS011;59983;52.010;5.420;2023-04-29T00:04:48;26.23;;;19.75;;
72109;SDS011;59983;52.010;5.420;2023-04-29T00:07:15;26.70;;;19.98;;
72109;SDS011;59983;52.010;5.420;2023-04-29T00:09:42;30.15;;;20.92;;
72109;SDS011;59983;52.010;5.420;2023-04-29T00:12:09;34.05;;;21.00;;
72109;SDS011;59983;52.010;5.420;2023-04-29T00:14:36;30.30;;;21.50;;
72109;SDS011;59983;52.010;5.420;2023-04-29T00:17:02;28.83;;;20.42;;
72109;SDS011;59983;52.010;5.420;2023-04-29T00:19:29;33.47;;;20.33;;
72109;SDS011;59983;52.010;5.420;2023-04-29T00:21:56;32.10;;;20.55;;
72109;SDS011;59983;52.010;5.420;2023-04-29T00:24:22;32.25;;;20.95;;
72109;SDS011;59983;52.010;5.420;2023-04-29T00:26:49;37.80;;;20.60;;
72109;SDS011;59983;52.010;5.420;2023-04-29T00:29:15;33.05;;;20.95;;
72109;SDS011;59983;52.010;5.420;2023-04-29T00:31:42;29.02;;;20.73;;
72109;SDS011;59983;52.010;5.420;2023-04-29T00:34:08;31.88;;;19.95;;
72109;SDS011;59983;52.010;5.420;2023-04-29T00:36:35;35.17;;;21.27;;
72109;SDS011;59983;52.010;5.420;2023-04-29T00:39:02;33.27;;;20.77;;
72109;SDS011;59983;52.010;5.420;2023-04-29T00:41:28;36.90;;;22.45;;
72109;SDS011;59983;52.010;5.420;2023-04-29T00:43:56;41.28;;;22.35;;
72109;SDS011;59983;52.010;5.420;2023-04-29T00:46:23;35.20;;;22.30;;
72109;SDS011;59983;52.010;5.420;2023-04-29T00:48:49;41.28;;;24.23;;
72109;SDS011;59983;52.010;5.420;2023-04-29T00:51:16;42.30;;;25.03;;
72109;SDS011;59983;52.010;5.420;2023-04-29T00:53:43;43.38;;;23.80;;
72109;SDS011;59983;52.010;5.420;2023-04-29T00:56:10;43.35;;;24.05;;
72109;SDS011;59983;52.010;5.420;2023-04-29T00:58:39;40.75;;;23.92;;
72109;SDS011;59983;52.010;5.420;2023-04-29T01:01:10;45.08;;;27.00;;
72109;SDS011;59983;52.010;5.420;2023-04-29T01:03:37;48.63;;;26.23;;
72109;SDS011;59983;52.010;5.420;2023-04-29T01:11:59;38.30;;;24.77;;
72109;SDS011;59983;52.010;5.420;2023-04-29T01:14:47;41.90;;;24.73;;
72109;SDS011;59983;52.010;5.420;2023-04-29T01:17:18;40.33;;;24.23;;
72109;SDS011;59983;52.010;5.420;2023-04-29T01:19:53;41.35;;;24.98;;
72109;SDS011;59983;52.010;5.420;2023-04-29T01:22:22;48.25;;;25.50;;
72109;SDS011;59983;52.010;5.420;2023-04-29T01:24:48;49.85;;;26.17;;
72109;SDS011;59983;52.010;5.420;2023-04-29T01:32:40;43.08;;;25.27;;
72109;SDS011;59983;52.010;5.420;2023-04-29T01:35:20;42.72;;;24.48;;
72109;SDS011;59983;52.010;5.420;2023-04-29T01:38:12;49.88;;;24.63;;
72109;SDS011;59983;52.010;5.420;2023-04-29T01:41:06;49.03;;;24.13;;
72109;SDS011;59983;52.010;5.420;2023-04-29T01:43:38;44.30;;;23.67;;
72109;SDS011;59983;52.010;5.420;2023-04-29T01:46:05;46.83;;;24.92;;
72109;SDS011;59983;52.010;5.420;2023-04-29T01:48:34;41.60;;;23.48;;
72109;SDS011;59983;52.010;5.420;2023-04-29T01:51:02;49.88;;;23.83;;
72109;SDS011;59983;52.010;5.420;2023-04-29T01:53:30;33.40;;;22.40;;
72109;SDS011;59983;52.010;5.420;2023-04-29T01:55:58;39.37;;;23.73;;
72109;SDS011;59983;52.010;5.420;2023-04-29T01:58:24;37.50;;;21.67;;
72109;SDS011;59983;52.010;5.420;2023-04-29T02:00:51;42.95;;;24.50;;
72109;SDS011;59983;52.010;5.420;2023-04-29T02:03:17;37.35;;;22.98;;
72109;SDS011;59983;52.010;5.420;2023-04-29T02:05:44;37.22;;;22.75;;
72109;SDS011;59983;52.010;5.420;2023-04-29T02:08:10;34.20;;;21.80;;
72109;SDS011;59983;52.010;5.420;2023-04-29T02:10:38;35.70;;;21.20;;
72109;SDS011;59983;52.010;5.420;2023-04-29T02:13:04;38.55;;;24.48;;
72109;SDS011;59983;52.010;5.420;2023-04-29T02:15:31;37.25;;;21.65;;
72109;SDS011;59983;52.010;5.420;2023-04-29T02:17:57;33.20;;;21.50;;
72109;SDS011;59983;52.010;5.420;2023-04-29T02:20:24;30.47;;;20.07;;
72109;SDS011;59983;52.010;5.420;2023-04-29T02:22:50;32.38;;;21.58;;
72109;SDS011;59983;52.010;5.420;2023-04-29T02:25:17;34.33;;;21.35;;
72109;SDS011;59983;52.010;5.420;2023-04-29T02:27:43;35.40;;;20.30;;
72109;SDS011;59983;52.010;5.420;2023-04-29T02:30:10;42.90;;;22.60;;
72109;SDS011;59983;52.010;5.420;2023-04-29T02:32:37;27.70;;;20.93;;
72109;SDS011;59983;52.010;5.420;2023-04-29T02:35:04;34.20;;;21.00;;
72109;SDS011;59983;52.010;5.420;2023-04-29T02:37:32;28.65;;;21.00;;
72109;SDS011;59983;52.010;5.420;2023-04-29T02:39:58;31.88;;;19.38;;
72109;SDS011;59983;52.010;5.420;2023-04-29T02:42:25;32.65;;;20.88;;
72109;SDS011;59983;52.010;5.420;2023-04-29T02:44:51;31.17;;;21.33;;
72109;SDS011;59983;52.010;5.420;2023-04-29T02:47:18;31.23;;;20.52;;
72109;SDS011;59983;52.010;5.420;2023-04-29T02:49:44;31.27;;;21.55;;
72109;SDS011;59983;52.010;5.420;2023-04-29T02:52:11;28.23;;;20.40;;
72109;SDS011;59983;52.010;5.420;2023-04-29T02:54:37;31.40;;;20.25;;
72109;SDS011;59983;52.010;5.420;2023-04-29T02:57:04;34.97;;;22.03;;
72109;SDS011;59983;52.010;5.420;2023-04-29T02:59:31;30.80;;;20.85;;
72109;SDS011;59983;52.010;5.420;2023-04-29T03:01:57;32.50;;;21.30;;
72109;SDS011;59983;52.010;5.420;2023-04-29T03:04:23;30.25;;;20.95;;
72109;SDS011;59983;52.010;5.420;2023-04-29T03:06:50;28.38;;;19.60;;
72109;SDS011;59983;52.010;5.420;2023-04-29T03:09:17;29.87;;;19.40;;
72109;SDS011;59983;52.010;5.420;2023-04-29T03:11:43;25.25;;;18.35;;
72109;SDS011;59983;52.010;5.420;2023-04-29T03:14:10;30.17;;;19.15;;
72109;SDS011;59983;52.010;5.420;2023-04-29T03:16:37;28.02;;;18.75;;
72109;SDS011;59983;52.010;5.420;2023-04-29T03:19:03;24.02;;;19.23;;
72109;SDS011;59983;52.010;5.420;2023-04-29T03:21:30;27.57;;;18.40;;
72109;SDS011;59983;52.010;5.420;2023-04-29T03:23:56;22.90;;;17.33;;
72109;SDS011;59983;52.010;5.420;2023-04-29T03:26:23;29.02;;;20.25;;
72109;SDS011;59983;52.010;5.420;2023-04-29T03:28:50;25.63;;;18.13;;
72109;SDS011;59983;52.010;5.420;2023-04-29T03:31:17;22.73;;;17.98;;
72109;SDS011;59983;52.010;5.420;2023-04-29T03:33:44;25.70;;;17.67;;
72109;SDS011;59983;52.010;5.420;2023-04-29T03:36:10;26.33;;;18.23;;
72109;SDS011;59983;52.010;5.420;2023-04-29T03:38:36;23.52;;;18.42;;
72109;SDS011;59983;52.010;5.420;2023-04-29T03:41:03;23.90;;;17.80;;
72109;SDS011;59983;52.010;5.420;2023-04-29T03:43:30;23.77;;;17.15;;
72109;SDS011;59983;52.010;5.420;2023-04-29T03:45:57;31.93;;;18.50;;
72109;SDS011;59983;52.010;5.420;2023-04-29T03:48:23;23.35;;;18.20;;
72109;SDS011;59983;52.010;5.420;2023-04-29T03:50:50;23.40;;;16.40;;
72109;SDS011;59983;52.010;5.420;2023-04-29T03:53:17;25.38;;;17.30;;
72109;SDS011;59983;52.010;5.420;2023-04-29T03:55:43;20.88;;;17.33;;
72109;SDS011;59983;52.010;5.420;2023-04-29T03:58:10;28.10;;;17.90;;
72109;SDS011;59983;52.010;5.420;2023-04-29T04:00:36;27.65;;;17.27;;
72109;SDS011;59983;52.010;5.420;2023-04-29T04:03:03;21.75;;;17.95;;
72109;SDS011;59983;52.010;5.420;2023-04-29T04:05:31;25.58;;;18.60;;
72109;SDS011;59983;52.010;5.420;2023-04-29T04:07:57;22.17;;;17.92;;
72109;SDS011;59983;52.010;5.420;2023-04-29T04:10:25;23.93;;;18.57;;
72109;SDS011;59983;52.010;5.420;2023-04-29T04:12:53;27.60;;;17.08;;
72109;SDS011;59983;52.010;5.420;2023-04-29T04:15:20;23.98;;;17.48;;
72109;SDS011;59983;52.010;5.420;2023-04-29T04:17:47;23.23;;;17.55;;
72109;SDS011;59983;52.010;5.420;2023-04-29T04:20:14;22.17;;;17.17;;
72109;SDS011;59983;52.010;5.420;2023-04-29T04:22:41;22.20;;;17.23;;
72109;SDS011;59983;52.010;5.420;2023-04-29T04:25:07;22.48;;;17.63;;
72109;SDS011;59983;52.010;5.420;2023-04-29T04:27:35;22.77;;;16.90;;
72109;SDS011;59983;52.010;5.420;2023-04-29T04:30:01;26.05;;;17.17;;
72109;SDS011;59983;52.010;5.420;2023-04-29T04:32:28;25.65;;;17.10;;
72109;SDS011;59983;52.010;5.420;2023-04-29T04:34:54;24.23;;;16.47;;
72109;SDS011;59983;52.010;5.420;2023-04-29T04:37:21;20.80;;;16.92;;
72109;SDS011;59983;52.010;5.420;2023-04-29T04:39:47;26.48;;;17.48;;
72109;SDS011;59983;52.010;5.420;2023-04-29T04:42:14;23.63;;;17.15;;
72109;SDS011;59983;52.010;5.420;2023-04-29T04:44:40;23.55;;;19.13;;
72109;SDS011;59983;52.010;5.420;2023-04-29T04:47:07;21.23;;;17.97;;
72109;SDS011;59983;52.010;5.420;2023-04-29T04:49:33;24.20;;;17.63;;
72109;SDS011;59983;52.010;5.420;2023-04-29T04:52:00;25.63;;;18.15;;
72109;SDS011;59983;52.010;5.420;2023-04-29T04:54:26;21.90;;;17.45;;
72109;SDS011;59983;52.010;5.420;2023-04-29T04:56:53;21.73;;;16.73;;
72109;SDS011;59983;52.010;5.420;2023-04-29T04:59:20;19.97;;;17.57;;
72109;SDS011;59983;52.010;5.420;2023-04-29T05:01:46;23.02;;;17.58;;
72109;SDS011;59983;52.010;5.420;2023-04-29T05:04:13;24.98;;;18.27;;
72109;SDS011;59983;52.010;5.420;2023-04-29T05:06:40;21.90;;;16.33;;
72109;SDS011;59983;52.010;5.420;2023-04-29T05:09:07;22.05;;;16.45;;
72109;SDS011;59983;52.010;5.420;2023-04-29T05:11:33;20.97;;;16.57;;
72109;SDS011;59983;52.010;5.420;2023-04-29T05:14:00;20.65;;;15.50;;
72109;SDS011;59983;52.010;5.420;2023-04-29T05:16:26;19.23;;;17.27;;
72109;SDS011;59983;52.010;5.420;2023-04-29T05:18:53;22.60;;;17.25;;
72109;SDS011;59983;52.010;5.420;2023-04-29T05:21:19;21.27;;;17.08;;
72109;SDS011;59983;52.010;5.420;2023-04-29T05:23:46;19.90;;;15.77;;
72109;SDS011;59983;52.010;5.420;2023-04-29T05:26:12;18.55;;;16.65;;
72109;SDS011;59983;52.010;5.420;2023-04-29T05:28:39;18.92;;;16.23;;
72109;SDS011;59983;52.010;5.420;2023-04-29T05:31:05;20.05;;;16.85;;
72109;SDS011;59983;52.010;5.420;2023-04-29T05:33:32;18.23;;;15.50;;
72109;SDS011;59983;52.010;5.420;2023-04-29T05:35:59;22.80;;;14.97;;
72109;SDS011;59983;52.010;5.420;2023-04-29T05:38:25;17.33;;;15.52;;
72109;SDS011;59983;52.010;5.420;2023-04-29T05:40:54;18.48;;;15.05;;
72109;SDS011;59983;52.010;5.420;2023-04-29T05:43:21;17.75;;;15.93;;
72109;SDS011;59983;52.010;5.420;2023-04-29T05:45:48;21.60;;;15.60;;
72109;SDS011;59983;52.010;5.420;2023-04-29T05:48:15;17.53;;;15.67;;
72109;SDS011;59983;52.010;5.420;2023-04-29T05:50:41;18.77;;;15.40;;
72109;SDS011;59983;52.010;5.420;2023-04-29T05:53:08;18.25;;;15.45;;
72109;SDS011;59983;52.010;5.420;2023-04-29T05:55:34;17.02;;;15.27;;
72109;SDS011;59983;52.010;5.420;2023-04-29T05:58:01;17.52;;;15.35;;
72109;SDS011;59983;52.010;5.420;2023-04-29T06:00:28;19.97;;;15.23;;
72109;SDS011;59983;52.010;5.420;2023-04-29T06:02:54;17.52;;;15.00;;
72109;SDS011;59983;52.010;5.420;2023-04-29T06:05:24;18.63;;;15.98;;
72109;SDS011;59983;52.010;5.420;2023-04-29T06:07:52;18.23;;;14.88;;
72109;SDS011;59983;52.010;5.420;2023-04-29T06:10:19;19.75;;;15.50;;
72109;SDS011;59983;52.010;5.420;2023-04-29T06:12:45;16.70;;;14.97;;
72109;SDS011;59983;52.010;5.420;2023-04-29T06:15:14;15.43;;;13.82;;
72109;SDS011;59983;52.010;5.420;2023-04-29T06:17:41;15.90;;;14.18;;
72109;SDS011;59983;52.010;5.420;2023-04-29T06:20:08;17.17;;;15.48;;
72109;SDS011;59983;52.010;5.420;2023-04-29T06:22:34;21.02;;;15.88;;
72109;SDS011;59983;52.010;5.420;2023-04-29T06:25:01;19.20;;;15.00;;
72109;SDS011;59983;52.010;5.420;2023-04-29T06:27:28;17.65;;;15.63;;
72109;SDS011;59983;52.010;5.420;2023-04-29T06:29:54;25.42;;;15.05;;
72109;SDS011;59983;52.010;5.420;2023-04-29T06:32:21;26.13;;;14.27;;
72109;SDS011;59983;52.010;5.420;2023-04-29T06:34:47;19.02;;;15.10;;
72109;SDS011;59983;52.010;5.420;2023-04-29T06:37:14;19.80;;;15.43;;
72109;SDS011;59983;52.010;5.420;2023-04-29T06:39:40;18.90;;;14.63;;
72109;SDS011;59983;52.010;5.420;2023-04-29T06:42:07;23.60;;;15.07;;
72109;SDS011;59983;52.010;5.420;2023-04-29T06:44:33;16.85;;;14.57;;
72109;SDS011;59983;52.010;5.420;2023-04-29T06:47:00;21.90;;;15.25;;
72109;SDS011;59983;52.010;5.420;2023-04-29T06:49:26;15.47;;;13.63;;
72109;SDS011;59983;52.010;5.420;2023-04-29T06:51:53;20.58;;;13.38;;
72109;SDS011;59983;52.010;5.420;2023-04-29T06:54:19;20.20;;;14.88;;
72109;SDS011;59983;52.010;5.420;2023-04-29T06:56:46;15.57;;;13.70;;
72109;SDS011;59983;52.010;5.420;2023-04-29T06:59:13;15.55;;;13.32;;
72109;SDS011;59983;52.010;5.420;2023-04-29T07:01:40;15.97;;;12.90;;
72109;SDS011;59983;52.010;5.420;2023-04-29T07:04:10;23.80;;;14.27;;
72109;SDS011;59983;52.010;5.420;2023-04-29T07:06:37;16.23;;;14.13;;
72109;SDS011;59983;52.010;5.420;2023-04-29T07:09:03;19.55;;;13.32;;
72109;SDS011;59983;52.010;5.420;2023-04-29T07:11:30;19.77;;;14.10;;
72109;SDS011;59983;52.010;5.420;2023-04-29T07:13:57;17.83;;;13.93;;
72109;SDS011;59983;52.010;5.420;2023-04-29T07:16:23;19.42;;;14.55;;
72109;SDS011;59983;52.010;5.420;2023-04-29T07:18:51;17.67;;;13.55;;
72109;SDS011;59983;52.010;5.420;2023-04-29T07:21:18;15.60;;;12.73;;
72109;SDS011;59983;52.010;5.420;2023-04-29T07:23:44;21.75;;;14.57;;
72109;SDS011;59983;52.010;5.420;2023-04-29T07:26:11;18.20;;;15.00;;
72109;SDS011;59983;52.010;5.420;2023-04-29T07:28:41;19.15;;;13.98;;
72109;SDS011;59983;52.010;5.420;2023-04-29T07:31:08;15.10;;;13.35;;
72109;SDS011;59983;52.010;5.420;2023-04-29T07:33:36;16.95;;;13.43;;
72109;SDS011;59983;52.010;5.420;2023-04-29T07:36:02;17.95;;;14.30;;
72109;SDS011;59983;52.010;5.420;2023-04-29T07:38:29;15.83;;;12.60;;
72109;SDS011;59983;52.010;5.420;2023-04-29T07:40:56;22.17;;;12.90;;
72109;SDS011;59983;52.010;5.420;2023-04-29T07:43:22;19.85;;;12.82;;
72109;SDS011;59983;52.010;5.420;2023-04-29T07:45:49;15.88;;;12.77;;
72109;SDS011;59983;52.010;5.420;2023-04-29T07:48:15;19.98;;;13.50;;
72109;SDS011;59983;52.010;5.420;2023-04-29T07:50:42;18.87;;;12.43;;
72109;SDS011;59983;52.010;5.420;2023-04-29T07:53:09;15.85;;;12.15;;
72109;SDS011;59983;52.010;5.420;2023-04-29T07:55:36;18.75;;;14.07;;
72109;SDS011;59983;52.010;5.420;2023-04-29T07:58:03;17.13;;;12.18;;
72109;SDS011;59983;52.010;5.420;2023-04-29T08:00:29;18.88;;;12.27;;
72109;SDS011;59983;52.010;5.420;2023-04-29T08:02:56;15.27;;;12.50;;
72109;SDS011;59983;52.010;5.420;2023-04-29T08:05:23;16.13;;;11.48;;
72109;SDS011;59983;52.010;5.420;2023-04-29T08:07:51;14.35;;;11.93;;
72109;SDS011;59983;52.010;5.420;2023-04-29T08:10:17;14.18;;;11.32;;
72109;SDS011;59983;52.010;5.420;2023-04-29T08:12:45;13.95;;;11.60;;
72109;SDS011;59983;52.010;5.420;2023-04-29T08:15:11;16.07;;;10.60;;
72109;SDS011;59983;52.010;5.420;2023-04-29T08:17:38;16.30;;;10.88;;
72109;SDS011;59983;52.010;5.420;2023-04-29T08:20:05;13.98;;;11.50;;
72109;SDS011;59983;52.010;5.420;2023-04-29T08:22:33;16.85;;;10.73;;
72109;SDS011;59983;52.010;5.420;2023-04-29T08:24:59;14.52;;;11.18;;
72109;SDS011;59983;52.010;5.420;2023-04-29T08:27:28;19.77;;;11.33;;
72109;SDS011;59983;52.010;5.420;2023-04-29T08:29:54;14.35;;;10.07;;
72109;SDS011;59983;52.010;5.420;2023-04-29T08:32:24;11.35;;;9.63;;
72109;SDS011;59983;52.010;5.420;2023-04-29T08:34:50;11.93;;;9.02;;
72109;SDS011;59983;52.010;5.420;2023-04-29T08:37:18;11.85;;;9.50;;
72109;SDS011;59983;52.010;5.420;2023-04-29T08:39:45;11.30;;;9.27;;
72109;SDS011;59983;52.010;5.420;2023-04-29T08:42:13;12.63;;;9.80;;
72109;SDS011;59983;52.010;5.420;2023-04-29T08:44:39;16.48;;;9.77;;
72109;SDS011;59983;52.010;5.420;2023-04-29T08:47:07;13.32;;;9.45;;
72109;SDS011;59983;52.010;5.420;2023-04-29T08:49:34;12.32;;;9.55;;
72109;SDS011;59983;52.010;5.420;2023-04-29T08:52:03;12.97;;;9.67;;
72109;SDS011;59983;52.010;5.420;2023-04-29T08:54:30;10.13;;;8.70;;
72109;SDS011;59983;52.010;5.420;2023-04-29T08:56:57;13.27;;;8.65;;
72109;SDS011;59983;52.010;5.420;2023-04-29T08:59:25;10.90;;;8.80;;
72109;SDS011;59983;52.010;5.420;2023-04-29T09:01:54;9.40;;;8.15;;
72109;SDS011;59983;52.010;5.420;2023-04-29T09:04:45;8.73;;;7.70;;
72109;SDS011;59983;52.010;5.420;2023-04-29T09:07:15;8.30;;;7.68;;
72109;SDS011;59983;52.010;5.420;2023-04-29T09:09:42;8.95;;;8.05;;
72109;SDS011;59983;52.010;5.420;2023-04-29T09:12:09;8.05;;;7.25;;
72109;SDS011;59983;52.010;5.420;2023-04-29T09:14:35;8.02;;;7.30;;
72109;SDS011;59983;52.010;5.420;2023-04-29T09:17:02;12.00;;;8.20;;
72109;SDS011;59983;52.010;5.420;2023-04-29T09:19:29;8.98;;;7.90;;
72109;SDS011;59983;52.010;5.420;2023-04-29T09:21:58;8.20;;;7.22;;
72109;SDS011;59983;52.010;5.420;2023-04-29T09:24:25;9.90;;;8.13;;
72109;SDS011;59983;52.010;5.420;2023-04-29T09:26:53;8.80;;;7.03;;
72109;SDS011;59983;52.010;5.420;2023-04-29T09:29:20;9.00;;;7.93;;
72109;SDS011;59983;52.010;5.420;2023-04-29T09:31:47;9.68;;;7.25;;
72109;SDS011;59983;52.010;5.420;2023-04-29T09:34:14;7.95;;;7.15;;
72109;SDS011;59983;52.010;5.420;2023-04-29T09:36:51;8.23;;;6.57;;
72109;SDS011;59983;52.010;5.420;2023-04-29T09:39:24;7.05;;;6.45;;
72109;SDS011;59983;52.010;5.420;2023-04-29T09:44:18;9.95;;;7.18;;
72109;SDS011;59983;52.010;5.420;2023-04-29T09:46:55;8.45;;;7.68;;
72109;SDS011;59983;52.010;5.420;2023-04-29T09:49:26;8.10;;;6.78;;
72109;SDS011;59983;52.010;5.420;2023-04-29T09:51:58;7.50;;;6.85;;
72109;SDS011;59983;52.010;5.420;2023-04-29T09:54:27;6.73;;;6.13;;
72109;SDS011;59983;52.010;5.420;2023-04-29T09:56:55;14.13;;;8.55;;
72109;SDS011;59983;52.010;5.420;2023-04-29T09:59:23;9.57;;;6.97;;
72109;SDS011;59983;52.010;5.420;2023-04-29T10:01:52;8.07;;;6.95;;
72109;SDS011;59983;52.010;5.420;2023-04-29T10:04:22;7.68;;;7.03;;
72109;SDS011;59983;52.010;5.420;2023-04-29T10:06:50;6.80;;;6.10;;
72109;SDS011;59983;52.010;5.420;2023-04-29T10:09:18;10.25;;;7.00;;
72109;SDS011;59983;52.010;5.420;2023-04-29T10:11:47;8.07;;;6.90;;
72109;SDS011;59983;52.010;5.420;2023-04-29T10:14:16;7.03;;;6.18;;
72109;SDS011;59983;52.010;5.420;2023-04-29T10:17:07;7.97;;;7.20;;
72109;SDS011;59983;52.010;5.420;2023-04-29T10:19:52;7.37;;;6.73;;
72109;SDS011;59983;52.010;5.420;2023-04-29T10:25:15;7.07;;;6.38;;
72109;SDS011;59983;52.010;5.420;2023-04-29T10:27:44;7.95;;;7.15;;
72109;SDS011;59983;52.010;5.420;2023-04-29T10:30:11;8.07;;;6.85;;
72109;SDS011;59983;52.010;5.420;2023-04-29T10:32:39;6.80;;;6.20;;
72109;SDS011;59983;52.010;5.420;2023-04-29T10:35:17;7.28;;;6.18;;
72109;SDS011;59983;52.010;5.420;2023-04-29T10:37:46;8.07;;;6.43;;
72109;SDS011;59983;52.010;5.420;2023-04-29T10:40:35;6.80;;;6.20;;
72109;SDS011;59983;52.010;5.420;2023-04-29T10:43:11;8.52;;;6.50;;
72109;SDS011;59983;52.010;5.420;2023-04-29T10:45:38;6.60;;;5.83;;
72109;SDS011;59983;52.010;5.420;2023-04-29T10:48:09;6.25;;;5.38;;
72109;SDS011;59983;52.010;5.420;2023-04-29T10:55:41;6.25;;;5.70;;
72109;SDS011;59983;52.010;5.420;2023-04-29T11:00:59;7.85;;;5.75;;
72109;SDS011;59983;52.010;5.420;2023-04-29T11:06:47;10.30;;;6.25;;
72109;SDS011;59983;52.010;5.420;2023-04-29T11:09:25;6.43;;;5.72;;
72109;SDS011;59983;52.010;5.420;2023-04-29T11:12:03;6.23;;;5.63;;
72109;SDS011;59983;52.010;5.420;2023-04-29T11:14:34;6.40;;;5.90;;
72109;SDS011;59983;52.010;5.420;2023-04-29T11:17:12;6.88;;;6.18;;
72109;SDS011;59983;52.010;5.420;2023-04-29T11:19:44;6.65;;;6.15;;
72109;SDS011;59983;52.010;5.420;2023-04-29T11:27:24;5.80;;;5.30;;
72109;SDS011;59983;52.010;5.420;2023-04-29T11:29:57;6.65;;;5.00;;
72109;SDS011;59983;52.010;5.420;2023-04-29T11:32:25;8.13;;;5.57;;
72109;SDS011;59983;52.010;5.420;2023-04-29T11:35:09;7.38;;;6.22;;
72109;SDS011;59983;52.010;5.420;2023-04-29T11:37:40;5.70;;;5.20;;
72109;SDS011;59983;52.010;5.420;2023-04-29T11:40:08;5.97;;;5.38;;
72109;SDS011;59983;52.010;5.420;2023-04-29T11:42:43;7.85;;;6.13;;
72109;SDS011;59983;52.010;5.420;2023-04-29T11:45:11;6.80;;;6.10;;
72109;SDS011;59983;52.010;5.420;2023-04-29T11:47:41;5.97;;;5.47;;
72109;SDS011;59983;52.010;5.420;2023-04-29T11:50:10;6.10;;;5.27;;
72109;SDS011;59983;52.010;5.420;2023-04-29T11:52:38;6.13;;;4.90;;
72109;SDS011;59983;52.010;5.420;2023-04-29T11:55:08;5.47;;;4.90;;
72109;SDS011;59983;52.010;5.420;2023-04-29T11:57:37;6.28;;;5.53;;
72109;SDS011;59983;52.010;5.420;2023-04-29T12:00:09;6.43;;;5.93;;
72109;SDS011;59983;52.010;5.420;2023-04-29T12:02:42;6.60;;;5.80;;
72109;SDS011;59983;52.010;5.420;2023-04-29T12:05:10;5.40;;;5.00;;
72109;SDS011;59983;52.010;5.420;2023-04-29T12:07:38;5.15;;;4.53;;
72109;SDS011;59983;52.010;5.420;2023-04-29T12:10:08;4.78;;;4.32;;
72109;SDS011;59983;52.010;5.420;2023-04-29T12:12:37;5.10;;;4.60;;
72109;SDS011;59983;52.010;5.420;2023-04-29T12:15:06;6.57;;;4.10;;
72109;SDS011;59983;52.010;5.420;2023-04-29T12:17:35;4.75;;;4.35;;
72109;SDS011;59983;52.010;5.420;2023-04-29T12:20:02;4.30;;;4.00;;
72109;SDS011;59983;52.010;5.420;2023-04-29T12:22:30;5.70;;;4.28;;
72109;SDS011;59983;52.010;5.420;2023-04-29T12:24:57;4.88;;;4.38;;
72109;SDS011;59983;52.010;5.420;2023-04-29T12:27:25;4.37;;;3.97;;
72109;SDS011;59983;52.010;5.420;2023-04-29T12:29:52;3.60;;;3.30;;
72109;SDS011;59983;52.010;5.420;2023-04-29T12:32:23;4.57;;;4.22;;
72109;SDS011;59983;52.010;5.420;2023-04-29T12:34:50;4.80;;;4.40;;
72109;SDS011;59983;52.010;5.420;2023-04-29T12:37:18;5.38;;;4.78;;
72109;SDS011;59983;52.010;5.420;2023-04-29T12:39:48;6.10;;;4.90;;
72109;SDS011;59983;52.010;5.420;2023-04-29T12:42:15;4.43;;;3.70;;
72109;SDS011;59983;52.010;5.420;2023-04-29T12:44:45;4.40;;;3.97;;
72109;SDS011;59983;52.010;5.420;2023-04-29T12:47:12;4.50;;;4.10;;
72109;SDS011;59983;52.010;5.420;2023-04-29T12:49:41;9.90;;;4.88;;
72109;SDS011;59983;52.010;5.420;2023-04-29T12:52:08;4.17;;;3.77;;
72109;SDS011;59983;52.010;5.420;2023-04-29T12:54:36;5.22;;;3.70;;
72109;SDS011;59983;52.010;5.420;2023-04-29T12:57:06;6.32;;;3.80;;
72109;SDS011;59983;52.010;5.420;2023-04-29T12:59:33;4.63;;;4.20;;
72109;SDS011;59983;52.010;5.420;2023-04-29T13:02:00;4.20;;;3.90;;
72109;SDS011;59983;52.010;5.420;2023-04-29T13:04:27;5.97;;;3.93;;
72109;SDS011;59983;52.010;5.420;2023-04-29T13:06:54;4.15;;;3.80;;
72109;SDS011;59983;52.010;5.420;2023-04-29T13:09:25;4.88;;;3.40;;
72109;SDS011;59983;52.010;5.420;2023-04-29T13:11:52;3.67;;;2.80;;
72109;SDS011;59983;52.010;5.420;2023-04-29T13:14:18;3.85;;;3.55;;
72109;SDS011;59983;52.010;5.420;2023-04-29T13:16:45;4.57;;;3.93;;
72109;SDS011;59983;52.010;5.420;2023-04-29T13:19:12;5.18;;;4.05;;
72109;SDS011;59983;52.010;5.420;2023-04-29T13:21:58;4.72;;;4.10;;
72109;SDS011;59983;52.010;5.420;2023-04-29T13:24:25;5.95;;;5.30;;
72109;SDS011;59983;52.010;5.420;2023-04-29T13:26:52;6.63;;;6.05;;
72109;SDS011;59983;52.010;5.420;2023-04-29T13:29:19;5.90;;;5.30;;
72109;SDS011;59983;52.010;5.420;2023-04-29T13:31:46;6.63;;;5.20;;
72109;SDS011;59983;52.010;5.420;2023-04-29T13:34:13;5.15;;;4.63;;
72109;SDS011;59983;52.010;5.420;2023-04-29T13:36:39;4.03;;;3.63;;
72109;SDS011;59983;52.010;5.420;2023-04-29T13:39:06;4.13;;;3.67;;
72109;SDS011;59983;52.010;5.420;2023-04-29T13:41:32;5.23;;;3.90;;
72109;SDS011;59983;52.010;5.420;2023-04-29T13:44:00;5.00;;;3.70;;
72109;SDS011;59983;52.010;5.420;2023-04-29T13:46:28;5.82;;;5.22;;
72109;SDS011;59983;52.010;5.420;2023-04-29T13:48:56;6.18;;;4.22;;
72109;SDS011;59983;52.010;5.420;2023-04-29T13:51:43;4.85;;;3.53;;
72109;SDS011;59983;52.010;5.420;2023-04-29T13:54:12;12.77;;;4.70;;
72109;SDS011;59983;52.010;5.420;2023-04-29T13:56:42;5.00;;;3.75;;
72109;SDS011;59983;52.010;5.420;2023-04-29T13:59:29;5.75;;;4.55;;
72109;SDS011;59983;52.010;5.420;2023-04-29T14:02:02;4.55;;;4.15;;
72109;SDS011;59983;52.010;5.420;2023-04-29T14:04:31;6.75;;;4.70;;
72109;SDS011;59983;52.010;5.420;2023-04-29T14:06:58;6.13;;;4.40;;
72109;SDS011;59983;52.010;5.420;2023-04-29T14:09:25;9.35;;;4.53;;
72109;SDS011;59983;52.010;5.420;2023-04-29T14:11:51;6.60;;;4.60;;
72109;SDS011;59983;52.010;5.420;2023-04-29T14:14:19;8.90;;;4.57;;
72109;SDS011;59983;52.010;5.420;2023-04-29T14:16:45;7.03;;;5.33;;
72109;SDS011;59983;52.010;5.420;2023-04-29T14:19:12;5.47;;;4.15;;
72109;SDS011;59983;52.010;5.420;2023-04-29T14:21:39;5.25;;;4.40;;
72109;SDS011;59983;52.010;5.420;2023-04-29T14:24:05;7.57;;;4.57;;
72109;SDS011;59983;52.010;5.420;2023-04-29T14:26:32;4.77;;;4.37;;
72109;SDS011;59983;52.010;5.420;2023-04-29T14:28:58;5.35;;;4.57;;
72109;SDS011;59983;52.010;5.420;2023-04-29T14:31:26;6.15;;;4.40;;
72109;SDS011;59983;52.010;5.420;2023-04-29T14:33:54;7.88;;;5.10;;
72109;SDS011;59983;52.010;5.420;2023-04-29T14:36:22;5.25;;;4.68;;
72109;SDS011;59983;52.010;5.420;2023-04-29T14:38:49;5.57;;;5.07;;
72109;SDS011;59983;52.010;5.420;2023-04-29T14:41:16;5.57;;;4.90;;
72109;SDS011;59983;52.010;5.420;2023-04-29T14:43:42;5.00;;;4.50;;
72109;SDS011;59983;52.010;5.420;2023-04-29T14:46:09;7.03;;;4.88;;
72109;SDS011;59983;52.010;5.420;2023-04-29T14:48:36;5.78;;;5.25;;
72109;SDS011;59983;52.010;5.420;2023-04-29T14:51:03;6.40;;;4.90;;
72109;SDS011;59983;52.010;5.420;2023-04-29T14:53:31;6.43;;;4.57;;
72109;SDS011;59983;52.010;5.420;2023-04-29T14:55:57;5.95;;;5.35;;
72109;SDS011;59983;52.010;5.420;2023-04-29T14:58:24;7.75;;;4.85;;
72109;SDS011;59983;52.010;5.420;2023-04-29T15:00:51;6.00;;;5.40;;
72109;SDS011;59983;52.010;5.420;2023-04-29T15:03:17;8.03;;;5.63;;
72109;SDS011;59983;52.010;5.420;2023-04-29T15:05:48;9.90;;;5.65;;
72109;SDS011;59983;52.010;5.420;2023-04-29T15:08:16;8.82;;;6.35;;
72109;SDS011;59983;52.010;5.420;2023-04-29T15:10:44;8.13;;;5.95;;